Time;durP1;ratioP1;P1;durP2;ratioP2;P2;SDS_P1;SDS_P2;PMS_P1;PMS_P2;Temp;Humidity;BMP_temperature;BMP_pressure;BME280_temperature;BME280_humidity;BME280_pressure;Samples;Min_cycle;Max_cycle;Signal;HPM_P1;HPM_P2
2021/04/19 00:01:03;;;;;;;27.73;17.38;;;5.80;69.70;;;;;;6147706;23;19997;-70
2021/04/19 00:03:29;;;;;;;28.27;17.33;;;5.90;69.40;;;;;;6184683;23;20067;-70
2021/04/19 00:05:54;;;;;;;29.50;17.90;;;5.90;69.30;;;;;;6222952;23;20004;-69
2021/04/19 00:08:20;;;;;;;28.38;17.23;;;5.90;69.10;;;;;;6176718;23;20184;-69
2021/04/19 00:10:46;;;;;;;25.95;16.30;;;5.90;69.20;;;;;;6125521;23;20066;-68
2021/04/19 00:13:12;;;;;;;30.73;18.63;;;5.60;69.00;;;;;;6182668;23;20001;-69
2021/04/19 00:15:37;;;;;;;28.98;18.23;;;5.10;70.70;;;;;;6211819;23;20162;-68
2021/04/19 00:18:03;;;;;;;28.45;16.67;;;5.10;71.70;;;;;;6200070;23;20067;-68
2021/04/19 00:20:29;;;;;;;28.52;17.33;;;5.20;71.50;;;;;;6177541;23;20028;-67
2021/04/19 00:22:55;;;;;;;29.33;17.38;;;5.50;71.40;;;;;;6204720;23;20056;-69
2021/04/19 00:25:20;;;;;;;27.52;16.98;;;5.60;70.60;;;;;;6207067;23;20008;-71
2021/04/19 00:27:46;;;;;;;28.55;17.55;;;5.30;70.90;;;;;;6184447;23;20004;-71
2021/04/19 00:30:12;;;;;;;29.98;18.67;;;5.40;71.70;;;;;;6211530;23;20001;-67
2021/04/19 00:32:37;;;;;;;28.83;16.88;;;5.40;71.80;;;;;;6225466;23;20161;-68
2021/04/19 00:35:04;;;;;;;30.10;17.10;;;5.50;71.70;;;;;;6203647;23;20067;-68
2021/04/19 00:37:30;;;;;;;27.98;17.63;;;5.20;71.60;;;;;;6173204;23;20024;-69
2021/04/19 00:39:56;;;;;;;28.45;17.40;;;5.00;72.00;;;;;;6207577;23;20338;-72
2021/04/19 00:42:21;;;;;;;29.40;17.27;;;4.90;72.70;;;;;;6211095;23;20005;-71
2021/04/19 00:44:47;;;;;;;28.15;17.88;;;5.00;72.80;;;;;;6201338;23;20012;-70
2021/04/19 00:47:13;;;;;;;29.52;17.83;;;4.90;72.70;;;;;;6229311;23;20072;-70
2021/04/19 00:49:39;;;;;;;27.20;16.48;;;4.80;72.90;;;;;;6180615;23;20007;-72
2021/04/19 00:52:05;;;;;;;29.50;17.98;;;4.80;73.00;;;;;;6181876;23;20012;-71
2021/04/19 00:54:30;;;;;;;30.45;18.00;;;4.80;73.00;;;;;;6186303;23;20021;-70
2021/04/19 00:56:56;;;;;;;29.23;17.15;;;4.90;73.20;;;;;;6174992;23;20024;-68
2021/04/19 00:59:21;;;;;;;26.98;16.70;;;5.30;72.90;;;;;;6177147;23;20043;-69
2021/04/19 01:01:47;;;;;;;26.65;16.52;;;5.40;71.70;;;;;;6178979;23;20020;-67
2021/04/19 01:04:13;;;;;;;29.73;17.98;;;5.30;72.50;;;;;;6206683;23;20032;-69
2021/04/19 01:06:39;;;;;;;29.48;17.73;;;5.10;72.10;;;;;;6186348;23;20012;-68
2021/04/19 01:09:05;;;;;;;28.33;17.30;;;5.00;72.90;;;;;;6199811;23;20051;-69
2021/04/19 01:11:30;;;;;;;30.00;17.80;;;4.90;73.00;;;;;;6201516;23;20008;-68
2021/04/19 01:13:56;;;;;;;29.75;17.42;;;5.10;73.40;;;;;;6230330;23;20076;-69
2021/04/19 01:16:21;;;;;;;29.70;18.33;;;5.00;73.20;;;;;;6148986;23;20013;-69
2021/04/19 01:18:47;;;;;;;27.40;17.35;;;5.00;73.00;;;;;;6183902;23;20024;-69
2021/04/19 01:21:12;;;;;;;31.10;17.90;;;5.30;73.10;;;;;;6236834;23;20001;-69
2021/04/19 01:23:38;;;;;;;28.92;17.35;;;5.40;71.80;;;;;;6173468;23;20010;-68
2021/04/19 01:26:04;;;;;;;28.65;17.45;;;5.30;72.10;;;;;;6177945;23;20011;-69
2021/04/19 01:28:30;;;;;;;28.73;17.77;;;5.00;72.80;;;;;;6206039;23;20004;-71
2021/04/19 01:30:55;;;;;;;26.73;17.00;;;5.10;73.30;;;;;;6207850;23;20184;-68
2021/04/19 01:33:21;;;;;;;31.00;17.55;;;5.10;73.50;;;;;;6210673;23;20004;-69
2021/04/19 01:35:47;;;;;;;27.55;17.35;;;5.30;73.10;;;;;;6199804;23;20016;-69
2021/04/19 01:38:13;;;;;;;27.42;17.42;;;5.40;72.50;;;;;;6228965;23;20303;-69
2021/04/19 01:40:39;;;;;;;28.85;17.23;;;5.60;72.60;;;;;;6179427;23;20005;-68
2021/04/19 01:43:05;;;;;;;27.15;17.38;;;5.50;71.50;;;;;;6182197;23;22669;-69
2021/04/19 01:45:31;;;;;;;29.83;18.05;;;5.50;72.00;;;;;;6237697;23;19996;-69
2021/04/19 01:47:56;;;;;;;28.27;17.08;;;5.60;72.00;;;;;;6199782;23;20013;-69
2021/04/19 01:50:23;;;;;;;29.25;17.08;;;5.70;71.90;;;;;;6124387;23;20246;-69
2021/04/19 01:52:49;;;;;;;31.73;18.40;;;5.70;71.70;;;;;;6174158;23;20017;-69
2021/04/19 01:55:19;;;;;;;30.45;18.52;;;5.50;71.50;;;;;;6203094;23;20196;-69
2021/04/19 01:57:50;;;;;;;28.50;17.52;;;5.60;71.90;;;;;;6179012;23;19993;-69
2021/04/19 02:00:17;;;;;;;29.35;18.13;;;5.40;72.30;;;;;;6157007;23;20056;-69
2021/04/19 02:03:32;;;;;;;29.08;18.17;;;5.40;72.60;;;;;;6168284;23;20009;-69
2021/04/19 02:06:06;;;;;;;26.42;16.98;;;5.40;72.80;;;;;;6144673;23;20168;-68
2021/04/19 02:08:34;;;;;;;25.85;16.65;;;5.70;72.60;;;;;;6169591;23;20312;-69
2021/04/19 02:11:32;;;;;;;28.15;17.30;;;5.80;71.90;;;;;;6198385;23;20292;-69
2021/04/19 02:14:27;;;;;;;26.95;16.75;;;5.90;71.90;;;;;;6173065;23;20288;-69
2021/04/19 02:17:14;;;;;;;28.50;17.40;;;6.00;71.80;;;;;;6178278;23;20005;-68
2021/04/19 02:20:15;;;;;;;27.60;17.85;;;5.90;71.20;;;;;;6200821;23;20008;-69
2021/04/19 02:22:44;;;;;;;29.95;16.92;;;5.80;71.80;;;;;;6183007;23;20020;-69
2021/04/19 02:25:17;;;;;;;28.38;16.95;;;5.80;72.10;;;;;;6176900;23;20001;-69
2021/04/19 02:27:47;;;;;;;28.33;17.50;;;5.90;71.90;;;;;;6205124;23;19997;-69
2021/04/19 02:30:14;;;;;;;27.30;17.30;;;6.00;71.90;;;;;;6194288;23;20016;-69
2021/04/19 02:32:43;;;;;;;29.17;18.17;;;6.10;71.20;;;;;;6195488;23;20009;-69
2021/04/19 02:35:10;;;;;;;26.30;16.23;;;5.90;71.30;;;;;;6197032;23;20016;-68
2021/04/19 02:37:36;;;;;;;28.98;17.65;;;6.10;71.40;;;;;;6168479;23;20009;-68
2021/04/19 02:40:02;;;;;;;27.85;16.83;;;6.10;71.30;;;;;;6177097;23;20016;-68
2021/04/19 02:42:28;;;;;;;26.33;17.33;;;6.10;71.50;;;;;;6204913;23;20051;-68
2021/04/19 02:44:54;;;;;;;27.55;17.77;;;5.90;72.10;;;;;;6169722;23;20009;-68
2021/04/19 02:47:20;;;;;;;27.33;17.20;;;5.90;71.40;;;;;;6196344;23;20304;-69
2021/04/19 02:49:46;;;;;;;25.75;16.50;;;5.70;71.80;;;;;;6200242;23;20021;-69
2021/04/19 02:52:12;;;;;;;28.95;17.95;;;5.90;71.90;;;;;;6175842;23;20032;-69
2021/04/19 02:54:39;;;;;;;28.25;17.75;;;5.90;71.60;;;;;;6180392;23;20004;-68
2021/04/19 02:57:15;;;;;;;26.70;17.08;;;5.90;71.30;;;;;;6193752;23;20047;-68
2021/04/19 02:59:40;;;;;;;27.50;17.77;;;5.90;71.50;;;;;;6170970;23;20281;-69
2021/04/19 03:02:07;;;;;;;26.15;16.88;;;6.00;71.50;;;;;;6197011;23;20013;-69
2021/04/19 03:04:36;;;;;;;29.70;17.88;;;6.00;71.80;;;;;;6199369;23;20028;-69
2021/04/19 03:07:02;;;;;;;28.98;17.67;;;5.90;71.30;;;;;;6201426;23;20001;-69
2021/04/19 03:09:27;;;;;;;27.50;17.10;;;5.80;72.10;;;;;;6180639;23;20203;-69
2021/04/19 03:11:55;;;;;;;28.63;17.42;;;5.90;71.90;;;;;;6193935;23;20170;-68
2021/04/19 03:14:23;;;;;;;27.98;17.30;;;6.00;71.90;;;;;;6171346;23;20009;-69
2021/04/19 03:16:51;;;;;;;27.98;17.15;;;6.10;71.50;;;;;;6165086;23;20012;-68
2021/04/19 03:19:19;;;;;;;29.05;17.25;;;6.20;71.20;;;;;;6176184;23;20001;-68
2021/04/19 03:21:44;;;;;;;27.73;16.80;;;6.20;71.10;;;;;;6180460;23;20034;-68
2021/04/19 03:24:10;;;;;;;27.92;17.17;;;6.00;71.20;;;;;;6192595;23;20009;-68
2021/04/19 03:26:36;;;;;;;26.48;16.98;;;6.10;71.60;;;;;;6196253;23;20010;-69
2021/04/19 03:29:02;;;;;;;28.25;17.48;;;6.00;71.20;;;;;;6172367;23;20005;-68
2021/04/19 03:31:31;;;;;;;28.52;17.55;;;6.20;71.40;;;;;;6143613;23;20188;-69
2021/04/19 03:33:59;;;;;;;29.35;16.38;;;6.20;70.80;;;;;;6201678;23;20005;-69
2021/04/19 03:36:24;;;;;;;27.50;17.15;;;6.20;71.00;;;;;;6180303;23;20007;-68
2021/04/19 03:38:50;;;;;;;25.27;16.83;;;6.10;71.40;;;;;;6194848;23;20009;-68
2021/04/19 03:41:16;;;;;;;28.17;16.92;;;6.10;71.20;;;;;;6171611;23;20009;-68
2021/04/19 03:43:45;;;;;;;29.38;17.88;;;6.10;71.50;;;;;;6174225;23;20076;-69
2021/04/19 03:46:10;;;;;;;27.77;17.65;;;5.90;71.30;;;;;;6178655;23;20005;-68
2021/04/19 03:48:39;;;;;;;28.88;17.60;;;5.70;72.30;;;;;;6182035;23;20040;-68
2021/04/19 03:51:07;;;;;;;29.05;17.42;;;5.90;72.30;;;;;;6197354;23;20161;-69
2021/04/19 03:53:32;;;;;;;27.88;17.17;;;5.70;72.20;;;;;;6177663;23;20008;-68
2021/04/19 03:55:59;;;;;;;28.20;17.63;;;5.70;72.60;;;;;;6179613;23;20011;-69
2021/04/19 03:58:26;;;;;;;27.48;17.55;;;5.80;72.70;;;;;;6181889;23;20200;-69
2021/04/19 04:00:53;;;;;;;27.60;17.30;;;6.00;72.10;;;;;;6209301;23;20005;-69
2021/04/19 04:03:18;;;;;;;27.40;17.08;;;6.10;71.80;;;;;;6187127;23;20008;-68
2021/04/19 04:05:44;;;;;;;34.95;17.67;;;6.20;71.40;;;;;;6201747;23;20300;-69
2021/04/19 04:08:10;;;;;;;27.95;16.88;;;6.10;71.80;;;;;;6179319;23;20016;-68
2021/04/19 04:10:35;;;;;;;28.67;17.85;;;6.20;71.40;;;;;;6206064;23;20031;-68
2021/04/19 04:13:01;;;;;;;29.92;17.30;;;6.20;71.60;;;;;;6208658;23;20055;-68
2021/04/19 04:15:26;;;;;;;27.17;17.15;;;6.20;71.50;;;;;;6211357;23;20016;-68
2021/04/19 04:17:52;;;;;;;27.58;17.40;;;6.20;71.70;;;;;;6227338;23;20004;-68
2021/04/19 04:20:18;;;;;;;27.15;16.98;;;6.30;71.10;;;;;;6203255;23;20071;-69
2021/04/19 04:22:43;;;;;;;27.73;17.55;;;6.20;71.30;;;;;;6180330;23;20067;-68
2021/04/19 04:25:09;;;;;;;32.20;18.25;;;6.30;71.10;;;;;;6207523;23;20216;-68
2021/04/19 04:27:35;;;;;;;31.80;18.30;;;6.30;70.80;;;;;;6176530;23;19997;-69
2021/04/19 04:30:00;;;;;;;30.55;17.27;;;6.30;71.10;;;;;;6175637;23;20005;-68
2021/04/19 04:32:26;;;;;;;30.02;17.58;;;6.20;71.30;;;;;;6177420;23;20058;-68
2021/04/19 04:34:52;;;;;;;28.35;17.92;;;6.10;71.80;;;;;;6155047;23;20013;-68
2021/04/19 04:37:17;;;;;;;28.05;17.45;;;6.20;72.00;;;;;;6206465;23;20028;-68
2021/04/19 04:39:43;;;;;;;30.95;18.13;;;6.20;71.80;;;;;;6211853;23;19998;-68
2021/04/19 04:42:11;;;;;;;31.25;18.35;;;6.20;71.80;;;;;;6225314;23;20008;-68
2021/04/19 04:44:38;;;;;;;26.00;15.75;;;6.10;71.70;;;;;;6177112;23;20015;-68
2021/04/19 04:47:30;;;;;;;26.70;17.17;;;6.20;72.10;;;;;;6202424;23;20304;-69
2021/04/19 04:50:15;;;;;;;27.23;17.15;;;6.30;71.70;;;;;;6230367;23;20004;-68
2021/04/19 04:53:04;;;;;;;29.63;17.20;;;6.40;71.40;;;;;;6180219;23;20025;-69
2021/04/19 04:55:29;;;;;;;27.98;17.08;;;6.30;71.60;;;;;;6204606;23;20008;-68
2021/04/19 04:57:55;;;;;;;29.08;17.67;;;6.20;71.90;;;;;;6208248;23;20048;-69
2021/04/19 05:00:21;;;;;;;29.13;17.48;;;6.10;72.00;;;;;;6186531;23;20288;-68
2021/04/19 05:02:48;;;;;;;29.85;17.98;;;5.90;72.50;;;;;;6175833;23;20261;-68
2021/04/19 05:05:14;;;;;;;28.00;17.52;;;5.90;73.10;;;;;;6177619;23;20012;-68
2021/04/19 05:07:41;;;;;;;29.60;17.67;;;5.70;73.40;;;;;;6205298;23;20001;-68
2021/04/19 05:10:07;;;;;;;28.15;17.55;;;6.10;73.10;;;;;;6207373;23;20008;-68
2021/04/19 05:12:33;;;;;;;29.17;18.40;;;6.20;72.20;;;;;;6176449;23;20215;-69
2021/04/19 05:14:59;;;;;;;28.27;17.98;;;6.10;72.70;;;;;;6175193;23;20055;-68
2021/04/19 05:17:25;;;;;;;31.10;18.00;;;6.40;72.10;;;;;;6202101;23;20012;-68
2021/04/19 05:19:51;;;;;;;28.27;17.30;;;6.30;71.60;;;;;;6179435;23;20079;-68
2021/04/19 05:22:16;;;;;;;31.13;18.92;;;6.30;72.20;;;;;;6206594;23;20011;-68
2021/04/19 05:24:42;;;;;;;30.20;18.13;;;6.30;72.00;;;;;;6210785;23;19997;-68
2021/04/19 05:27:08;;;;;;;29.98;17.67;;;6.30;72.20;;;;;;6198961;23;20016;-68
2021/04/19 05:29:34;;;;;;;30.08;18.17;;;6.40;72.10;;;;;;6201547;23;20001;-68
2021/04/19 05:32:00;;;;;;;28.67;17.70;;;6.30;72.50;;;;;;6179047;23;20042;-68
2021/04/19 05:34:26;;;;;;;31.40;19.23;;;6.50;72.30;;;;;;6206328;23;19997;-69
2021/04/19 05:36:51;;;;;;;31.13;18.75;;;6.30;72.20;;;;;;6208052;23;20218;-68
2021/04/19 05:39:17;;;;;;;27.50;17.52;;;6.40;72.90;;;;;;6185694;23;20016;-70
2021/04/19 05:41:43;;;;;;;29.77;17.85;;;6.40;71.50;;;;;;6200039;23;20005;-69
2021/04/19 05:44:08;;;;;;;28.73;17.80;;;6.20;72.50;;;;;;6202024;23;20082;-70
2021/04/19 05:46:34;;;;;;;34.83;18.63;;;6.40;72.40;;;;;;6230892;23;20028;-70
2021/04/19 05:48:59;;;;;;;30.02;18.67;;;6.70;71.90;;;;;;6206971;23;20004;-70
2021/04/19 05:51:31;;;;;;;31.92;17.55;;;6.40;72.20;;;;;;6175625;23;20292;-69
2021/04/19 05:53:57;;;;;;;28.83;18.15;;;6.50;72.10;;;;;;6199209;23;20005;-70
2021/04/19 05:56:37;;;;;;;28.38;17.20;;;6.70;71.90;;;;;;6177197;23;20311;-69
2021/04/19 05:59:02;;;;;;;28.75;17.80;;;7.00;71.30;;;;;;6229498;23;20050;-70
2021/04/19 06:01:28;;;;;;;32.22;18.42;;;7.10;70.80;;;;;;6231678;23;20048;-70
2021/04/19 06:03:59;;;;;;;30.98;17.83;;;7.10;70.70;;;;;;6179687;23;20051;-69
2021/04/19 06:06:44;;;;;;;27.88;17.98;;;7.10;70.10;;;;;;6210196;23;19996;-68
2021/04/19 06:09:15;;;;;;;28.60;17.80;;;7.20;70.70;;;;;;6173652;23;20187;-67
2021/04/19 06:11:52;;;;;;;27.27;17.00;;;7.30;70.20;;;;;;6200541;23;20011;-68
2021/04/19 06:14:20;;;;;;;27.70;17.80;;;7.60;69.90;;;;;;6178453;23;20060;-68
2021/04/19 06:16:45;;;;;;;27.92;17.08;;;7.60;68.50;;;;;;6203945;23;20012;-68
2021/04/19 06:19:14;;;;;;;28.38;17.17;;;7.70;68.50;;;;;;6181056;23;20009;-68
2021/04/19 06:21:39;;;;;;;30.02;18.92;;;7.90;68.00;;;;;;6210519;23;20001;-68
2021/04/19 06:24:08;;;;;;;31.90;17.90;;;8.00;68.10;;;;;;6197245;23;20004;-70
2021/04/19 06:26:34;;;;;;;27.85;17.38;;;8.10;67.50;;;;;;6151131;23;20224;-71
2021/04/19 06:29:00;;;;;;;28.65;18.05;;;8.20;66.80;;;;;;6178014;23;20069;-69
2021/04/19 06:31:26;;;;;;;29.95;18.60;;;8.40;66.30;;;;;;6232190;23;20009;-69
2021/04/19 06:34:03;;;;;;;28.75;17.60;;;8.60;65.50;;;;;;6182354;23;20310;-70
2021/04/19 06:36:48;;;;;;;28.25;17.63;;;8.50;65.50;;;;;;6236920;23;20001;-68
2021/04/19 06:39:15;;;;;;;28.20;17.40;;;8.80;64.80;;;;;;6174370;23;20005;-71
2021/04/19 06:41:41;;;;;;;29.05;17.35;;;8.70;65.00;;;;;;6174764;23;20012;-72
2021/04/19 06:44:06;;;;;;;29.00;18.45;;;8.70;65.90;;;;;;6201893;23;20016;-73
2021/04/19 06:46:37;;;;;;;29.55;17.98;;;8.80;65.20;;;;;;6204401;23;20032;-69
2021/04/19 06:49:06;;;;;;;29.35;17.75;;;9.10;64.30;;;;;;6179735;23;20043;-72
2021/04/19 06:51:32;;;;;;;28.52;17.30;;;9.20;63.80;;;;;;6199957;23;20063;-71
2021/04/19 06:53:58;;;;;;;26.92;17.63;;;9.40;63.10;;;;;;6174677;23;20246;-67
2021/04/19 06:56:26;;;;;;;30.73;18.52;;;9.70;62.50;;;;;;6176363;23;20005;-67
2021/04/19 06:58:52;;;;;;;28.30;17.13;;;9.80;62.30;;;;;;6203085;23;20004;-70
2021/04/19 07:01:19;;;;;;;32.05;18.58;;;10.00;61.90;;;;;;6205126;23;20001;-69
2021/04/19 07:03:46;;;;;;;28.33;18.02;;;10.10;61.30;;;;;;6185261;23;20292;-69
2021/04/19 07:06:12;;;;;;;27.65;17.52;;;10.30;61.10;;;;;;6149882;23;20015;-70
2021/04/19 07:08:41;;;;;;;27.65;18.33;;;10.50;60.40;;;;;;6199354;23;20196;-69
2021/04/19 07:11:07;;;;;;;29.52;18.00;;;11.00;58.60;;;;;;6177817;23;20112;-68
2021/04/19 07:13:36;;;;;;;30.10;18.10;;;11.90;57.20;;;;;;6179391;23;20001;-69
2021/04/19 07:16:01;;;;;;;26.38;16.98;;;13.60;52.10;;;;;;6207089;23;20165;-71
2021/04/19 07:18:27;;;;;;;25.70;17.55;;;14.40;49.00;;;;;;6184659;23;20039;-70
2021/04/19 07:20:53;;;;;;;28.65;16.80;;;15.30;45.80;;;;;;6150034;23;20008;-69
2021/04/19 07:23:19;;;;;;;26.63;17.13;;;15.10;45.60;;;;;;6123820;23;20009;-71
2021/04/19 07:25:45;;;;;;;28.90;17.30;;;16.80;41.50;;;;;;6154315;23;20192;-71
2021/04/19 07:28:13;;;;;;;25.92;16.98;;;18.20;39.00;;;;;;6156466;23;19996;-72
2021/04/19 07:30:38;;;;;;;26.77;15.93;;;19.40;36.20;;;;;;6150526;23;20031;-69
2021/04/19 07:33:04;;;;;;;26.02;16.40;;;17.80;37.80;;;;;;6224829;23;20009;-70
2021/04/19 07:35:32;;;;;;;26.77;16.88;;;15.80;42.00;;;;;;6172075;23;20008;-70
2021/04/19 07:37:58;;;;;;;24.95;17.30;;;14.20;45.90;;;;;;6178415;23;20013;-70
2021/04/19 07:40:43;;;;;;;25.38;16.27;;;12.80;49.60;;;;;;6204740;23;20008;-70
2021/04/19 07:43:21;;;;;;;25.08;16.67;;;11.90;52.80;;;;;;6157412;23;20016;-70
2021/04/19 07:46:06;;;;;;;26.08;16.90;;;11.40;54.70;;;;;;6208377;23;20104;-70
2021/04/19 07:48:34;;;;;;;27.08;16.50;;;11.00;57.10;;;;;;6210835;23;20020;-70
2021/04/19 07:51:00;;;;;;;27.33;17.17;;;10.80;57.80;;;;;;6198901;23;20013;-70
2021/04/19 07:53:25;;;;;;;27.48;17.23;;;10.80;58.40;;;;;;6175568;23;20070;-71
2021/04/19 07:55:52;;;;;;;27.30;16.35;;;10.60;58.60;;;;;;6203571;23;20009;-70
2021/04/19 07:58:22;;;;;;;27.75;16.67;;;10.60;59.00;;;;;;6231507;23;20005;-71
2021/04/19 08:00:51;;;;;;;25.20;15.55;;;10.50;59.10;;;;;;6206783;23;20007;-69
2021/04/19 08:03:18;;;;;;;28.02;16.15;;;10.40;59.60;;;;;;6150782;23;20035;-70
2021/04/19 08:05:51;;;;;;;27.20;16.45;;;10.30;60.10;;;;;;6150195;23;20054;-70
2021/04/19 08:08:19;;;;;;;29.30;16.60;;;10.30;60.20;;;;;;6201665;23;20075;-70
2021/04/19 08:10:45;;;;;;;31.20;16.83;;;10.40;60.30;;;;;;6148491;23;20019;-69
2021/04/19 08:13:18;;;;;;;27.60;16.40;;;10.30;60.40;;;;;;6180832;23;20000;-69
2021/04/19 08:15:44;;;;;;;32.42;18.50;;;10.60;59.70;;;;;;6209965;23;20028;-69
2021/04/19 08:18:13;;;;;;;30.92;17.48;;;10.90;58.80;;;;;;6172281;23;20004;-70
2021/04/19 08:20:46;;;;;;;29.75;17.90;;;11.20;58.70;;;;;;6174922;23;20005;-70
2021/04/19 08:23:12;;;;;;;26.55;16.55;;;11.40;58.30;;;;;;6177645;23;20063;-70
2021/04/19 08:25:56;;;;;;;28.50;16.67;;;11.40;57.90;;;;;;6177634;23;20001;-70
2021/04/19 08:28:22;;;;;;;28.92;17.02;;;11.40;57.50;;;;;;6231218;23;20001;-70
2021/04/19 08:30:54;;;;;;;30.67;16.67;;;11.40;57.80;;;;;;6182877;23;20004;-70
2021/04/19 08:33:20;;;;;;;24.48;14.90;;;11.40;57.50;;;;;;6187141;23;20000;-69
2021/04/19 08:35:46;;;;;;;23.25;15.70;;;11.60;57.80;;;;;;6175978;23;20012;-70
2021/04/19 08:38:12;;;;;;;27.92;15.95;;;11.70;57.40;;;;;;6149725;23;20010;-70
2021/04/19 08:40:39;;;;;;;24.83;15.13;;;11.80;55.70;;;;;;6173849;23;20316;-69
2021/04/19 08:43:10;;;;;;;30.17;16.08;;;12.30;56.70;;;;;;6149070;23;20005;-70
2021/04/19 08:45:39;;;;;;;;;;;12.60;55.90;;;;;;6212219;23;20007;-71
2021/04/19 08:48:08;;;;;;;31.50;14.73;;;12.60;53.80;;;;;;6224194;23;19900;-68
2021/04/19 08:50:33;;;;;;;28.23;15.05;;;12.50;55.70;;;;;;6201776;23;20013;-70
2021/04/19 08:52:59;;;;;;;26.98;15.82;;;12.40;55.40;;;;;;6178978;23;20032;-69
2021/04/19 08:55:25;;;;;;;26.52;15.70;;;12.30;54.90;;;;;;6199030;23;20161;-69
2021/04/19 08:57:51;;;;;;;27.40;16.15;;;12.20;54.40;;;;;;6208407;23;20005;-66
2021/04/19 09:00:20;;;;;;;27.17;15.15;;;12.30;55.10;;;;;;6186546;23;20303;-68
2021/04/19 09:02:46;;;;;;;28.17;16.27;;;12.30;54.80;;;;;;6226467;23;20008;-77
2021/04/19 09:05:13;;;;;;;26.92;15.38;;;12.40;55.20;;;;;;6177458;23;20031;-75
2021/04/19 09:07:40;;;;;;;24.88;15.07;;;12.50;54.30;;;;;;6204883;23;20318;-75
2021/04/19 09:10:08;;;;;;;25.35;15.45;;;12.40;54.70;;;;;;6234056;23;20175;-75
2021/04/19 09:12:34;;;;;;;22.13;14.38;;;12.30;53.90;;;;;;6186745;23;20341;-74
2021/04/19 09:15:19;;;;;;;22.67;14.45;;;12.30;53.60;;;;;;6226510;23;20017;-81
2021/04/19 09:18:00;;;;;;;24.23;15.13;;;12.40;53.80;;;;;;6175556;23;20040;-75
2021/04/19 09:20:43;;;;;;;21.60;14.02;;;12.50;53.00;;;;;;6202328;23;20017;-81
2021/04/19 09:23:35;;;;;;;24.63;13.98;;;12.50;53.50;;;;;;6205391;23;20024;-79
2021/04/19 09:26:01;;;;;;;22.67;14.63;;;12.50;53.10;;;;;;6221270;23;20013;-79
2021/04/19 09:28:50;;;;;;;22.63;14.07;;;12.40;52.30;;;;;;6181328;23;20074;-81
2021/04/19 09:31:16;;;;;;;26.10;14.75;;;12.40;52.70;;;;;;6165724;23;20000;-77
2021/04/19 09:33:42;;;;;;;24.17;14.32;;;12.30;53.60;;;;;;6210822;23;20326;-79
2021/04/19 09:36:07;;;;;;;27.95;15.65;;;12.20;54.10;;;;;;6199533;23;20191;-74
2021/04/19 09:38:49;;;;;;;28.85;14.90;;;12.10;54.00;;;;;;6199939;23;20013;-74
2021/04/19 09:41:16;;;;;;;23.58;14.73;;;12.30;54.10;;;;;;6228661;23;20015;-78
2021/04/19 09:43:49;;;;;;;24.88;14.82;;;12.60;53.00;;;;;;6180504;23;20196;-79
2021/04/19 09:46:18;;;;;;;23.90;14.68;;;12.90;53.70;;;;;;6184146;23;20054;-78
2021/04/19 09:48:48;;;;;;;23.20;14.65;;;13.20;53.20;;;;;;6226835;23;19996;-74
2021/04/19 09:51:21;;;;;;;24.02;15.32;;;13.40;53.00;;;;;;6199521;23;20070;-73
2021/04/19 09:54:09;;;;;;;24.75;14.48;;;13.60;51.70;;;;;;6149728;23;20024;-72
2021/04/19 09:56:42;;;;;;;22.08;13.25;;;13.70;51.70;;;;;;6180201;23;20191;-74
2021/04/19 09:59:18;;;;;;;23.23;14.00;;;13.80;49.90;;;;;;6202349;23;20276;-73
2021/04/19 10:01:47;;;;;;;22.13;14.18;;;13.90;51.30;;;;;;6230984;23;20009;-69
2021/04/19 10:04:13;;;;;;;23.48;13.73;;;14.10;49.50;;;;;;6232629;23;20023;-70
2021/04/19 10:06:46;;;;;;;22.05;13.05;;;14.30;50.20;;;;;;6185523;23;20200;-70
2021/04/19 10:09:16;;;;;;;21.30;12.75;;;14.20;50.10;;;;;;6150716;23;20078;-69
2021/04/19 10:11:46;;;;;;;24.38;12.38;;;14.00;49.90;;;;;;6175568;23;20201;-68
2021/04/19 10:14:13;;;;;;;35.90;16.70;;;14.00;49.80;;;;;;6198107;23;20192;-69
2021/04/19 10:16:46;;;;;;;25.05;13.88;;;14.10;49.00;;;;;;6204248;23;20015;-70
2021/04/19 10:19:13;;;;;;;22.75;13.02;;;14.10;49.50;;;;;;6157535;23;20008;-69
2021/04/19 10:21:39;;;;;;;20.58;12.50;;;14.40;47.80;;;;;;6185726;23;20005;-68
2021/04/19 10:24:12;;;;;;;19.80;12.70;;;14.40;46.10;;;;;;6198313;23;20008;-69
2021/04/19 10:26:41;;;;;;;18.13;11.63;;;14.60;48.30;;;;;;6148945;23;20051;-69
2021/04/19 10:29:17;;;;;;;23.42;11.18;;;14.70;47.60;;;;;;6228617;23;20070;-71
2021/04/19 10:31:52;;;;;;;16.42;10.77;;;14.80;46.60;;;;;;6173518;23;20005;-67
2021/04/19 10:34:18;;;;;;;18.00;11.52;;;14.70;47.40;;;;;;6181109;23;20005;-67
2021/04/19 10:36:45;;;;;;;24.67;11.93;;;14.40;47.40;;;;;;6175061;23;20007;-67
2021/04/19 10:39:13;;;;;;;26.38;12.38;;;14.30;49.10;;;;;;6224824;23;20005;-67
2021/04/19 10:41:38;;;;;;;21.05;12.65;;;13.90;47.70;;;;;;6200667;23;20011;-68
2021/04/19 10:44:05;;;;;;;21.20;12.73;;;13.90;50.60;;;;;;6200911;23;20216;-65
2021/04/19 10:46:32;;;;;;;23.35;14.32;;;14.00;51.60;;;;;;6230349;23;20008;-66
2021/04/19 10:49:00;;;;;;;22.75;12.65;;;13.90;52.30;;;;;;6233193;23;20005;-66
2021/04/19 10:51:27;;;;;;;21.65;13.15;;;13.80;52.60;;;;;;6205717;23;20204;-66
2021/04/19 10:53:53;;;;;;;32.10;13.80;;;13.60;51.70;;;;;;6198642;23;20013;-66
2021/04/19 10:56:25;;;;;;;21.50;12.77;;;13.50;50.60;;;;;;6201584;23;20012;-64
2021/04/19 10:58:53;;;;;;;18.95;12.98;;;13.20;50.90;;;;;;6196722;23;20295;-65
2021/04/19 11:01:23;;;;;;;20.80;12.68;;;13.20;50.70;;;;;;6181390;23;20056;-65
2021/04/19 11:03:48;;;;;;;21.95;13.70;;;13.30;50.60;;;;;;6205528;23;20305;-65
2021/04/19 11:06:14;;;;;;;21.88;12.95;;;13.30;53.30;;;;;;6236461;23;19996;-67
2021/04/19 11:08:47;;;;;;;20.77;13.27;;;13.30;52.50;;;;;;6175396;23;20039;-67
2021/04/19 11:11:26;;;;;;;22.55;12.60;;;13.60;51.10;;;;;;6201573;23;20009;-65
2021/04/19 11:13:52;;;;;;;20.27;12.35;;;14.00;50.50;;;;;;6204030;23;20015;-66
2021/04/19 11:16:21;;;;;;;19.35;13.02;;;14.30;49.90;;;;;;6205589;23;20009;-67
2021/04/19 11:18:47;;;;;;;20.25;12.48;;;14.50;47.40;;;;;;6207772;23;19997;-70
2021/04/19 11:21:30;;;;;;;20.52;12.25;;;14.50;48.30;;;;;;6209636;23;19992;-68
2021/04/19 11:24:06;;;;;;;17.77;12.02;;;14.60;48.30;;;;;;6174792;23;20019;-64
2021/04/19 11:26:32;;;;;;;18.58;10.88;;;14.60;48.20;;;;;;6200555;23;20000;-67
2021/04/19 11:28:58;;;;;;;20.27;12.10;;;14.60;47.00;;;;;;6202271;23;20009;-66
2021/04/19 11:31:23;;;;;;;19.02;12.05;;;14.40;45.50;;;;;;6231209;23;20024;-66
2021/04/19 11:34:08;;;;;;;22.10;11.27;;;14.30;47.90;;;;;;6233647;23;20003;-67
2021/04/19 11:36:41;;;;;;;17.40;9.85;;;14.30;48.30;;;;;;6210200;23;20280;-67
2021/04/19 11:39:15;;;;;;;17.05;10.57;;;14.30;47.70;;;;;;6225309;23;20188;-67
2021/04/19 11:41:40;;;;;;;18.85;11.07;;;14.30;46.00;;;;;;6148662;23;20200;-70
2021/04/19 11:44:06;;;;;;;19.48;10.63;;;14.40;47.10;;;;;;6201547;23;20016;-72
2021/04/19 11:46:32;;;;;;;15.90;9.82;;;14.40;47.00;;;;;;6230770;23;20000;-68
2021/04/19 11:48:58;;;;;;;17.00;10.85;;;14.30;47.10;;;;;;6205281;23;20000;-68
2021/04/19 11:51:24;;;;;;;16.48;9.32;;;14.30;47.10;;;;;;6209505;23;20004;-70
2021/04/19 11:53:49;;;;;;;17.00;9.70;;;14.10;46.00;;;;;;6198674;23;20296;-71
2021/04/19 11:56:16;;;;;;;13.82;9.18;;;14.00;46.40;;;;;;6201208;23;20304;-67
2021/04/19 11:58:43;;;;;;;16.23;10.10;;;13.90;46.20;;;;;;6229850;23;20023;-70
2021/04/19 12:01:10;;;;;;;14.77;9.77;;;13.90;47.20;;;;;;6181066;23;20001;-68
2021/04/19 12:03:37;;;;;;;19.02;10.73;;;13.90;46.50;;;;;;6125867;23;20177;-67
2021/04/19 12:06:03;;;;;;;17.48;10.30;;;13.90;47.90;;;;;;6199618;23;20008;-66
2021/04/19 12:08:28;;;;;;;14.90;10.15;;;13.90;47.90;;;;;;6201973;23;20008;-64
2021/04/19 12:10:54;;;;;;;18.33;10.25;;;13.80;47.70;;;;;;6231272;23;20012;-64
2021/04/19 12:13:20;;;;;;;15.40;10.05;;;13.80;48.00;;;;;;6205940;23;20064;-65
2021/04/19 12:15:52;;;;;;;18.55;10.30;;;13.80;47.90;;;;;;6237664;23;19999;-63
2021/04/19 12:18:18;;;;;;;16.30;9.68;;;13.90;47.60;;;;;;6201447;23;20004;-64
2021/04/19 12:20:43;;;;;;;16.98;9.40;;;14.10;45.90;;;;;;6201584;23;20013;-64
2021/04/19 12:23:09;;;;;;;18.42;9.68;;;14.00;43.60;;;;;;6199147;23;20064;-64
2021/04/19 12:25:35;;;;;;;15.55;9.13;;;14.10;46.60;;;;;;6205939;23;20008;-64
2021/04/19 12:28:00;;;;;;;14.18;8.93;;;14.00;45.70;;;;;;6235138;23;20133;-64
2021/04/19 12:30:29;;;;;;;13.68;8.75;;;13.80;44.00;;;;;;6211682;23;19996;-64
2021/04/19 12:32:55;;;;;;;17.50;10.43;;;13.80;46.60;;;;;;6200250;23;20016;-64
2021/04/19 12:35:21;;;;;;;17.92;9.13;;;13.80;45.80;;;;;;6202772;23;20196;-64
2021/04/19 12:37:48;;;;;;;14.23;9.77;;;13.80;47.10;;;;;;6231177;23;20009;-66
2021/04/19 12:40:14;;;;;;;14.57;8.18;;;13.70;47.40;;;;;;6233832;23;20031;-67